GOO weather

Public forecast

Using degrees Celsius for public forecast. Weather courtesy of forecast.io.

Closest aviation weather report (METAR) to Goondiwindi Airport

Closest report is Moree Airport, 63.8 nm (118.1 km) SSW. Retrieved 2020/08/15 18:00 UTC (42 minutes ago):

YMOR 151800Z AUTO 29005KT 9999 // NCD 07/06 Q1013

Closest aviation forecast (TAF) to Goondiwindi Airport

Closest forecast is RAAF Base Amberley, 137.3 nm (254.3 km) ENE. Retrieved 2020/08/15 18:00 UTC (42 minutes ago):

TAF YAMB 151633Z 1518/1618 29010KT CAVOK FM160000 26014G28KT CAVOK FM160900 29008KT CAVOK